Terminal Aerodrome Forecast
Issued by NWS Sioux Falls, SD

Home | Current Version | Previous Version | Text Only | Print | Product List | Glossary On
Versions: 1 2 3 4 5 6 7 8 9 10 11 12 13 14 15 16 17 18 19 20 21 22 23 24 25 26 27 28 29 30 31 32 33 34 35 36
000
FTUS43 KFSD 220528
TAFSUX
TAF
KSUX 220528Z 2206/2306 16013KT 5SM BR OVC005
     FM220800 15012KT P6SM -RA OVC008
     FM221400 16009KT 5SM -RA BR OVC008
     FM221700 21007KT P6SM OVC012
     FM222100 29007KT P6SM OVC012
     FM230100 33008KT 5SM -SN OVC008=

USA.gov is the U.S. government's official web portal to all federal, state and local government web resources and services.